createdAt,value
2023-09-17T00:00:54.892Z,18.95
2023-09-17T00:03:21.188Z,18.97
2023-09-17T00:05:47.428Z,18.91
2023-09-17T00:08:13.676Z,18.90
2023-09-17T00:10:40.003Z,18.88
2023-09-17T00:13:06.244Z,18.83
2023-09-17T00:15:32.429Z,18.80
2023-09-17T00:17:58.694Z,18.79
2023-09-17T00:20:24.913Z,18.78
2023-09-17T00:22:51.116Z,18.73
2023-09-17T00:25:17.451Z,18.73
2023-09-17T00:27:43.683Z,18.73
2023-09-17T00:30:09.901Z,18.72
2023-09-17T00:32:36.225Z,18.72
2023-09-17T00:35:02.499Z,18.74
2023-09-17T00:37:28.777Z,18.75
2023-09-17T00:39:54.989Z,18.76
2023-09-17T00:42:21.203Z,18.74
2023-09-17T00:44:47.480Z,18.70
2023-09-17T00:47:13.782Z,18.68
2023-09-17T00:49:40.055Z,18.63
2023-09-17T00:52:06.281Z,18.60
2023-09-17T00:54:32.454Z,18.56
2023-09-17T00:56:58.633Z,18.48
2023-09-17T00:59:24.872Z,18.53
2023-09-17T01:01:51.151Z,18.48
2023-09-17T01:04:17.494Z,18.45
2023-09-17T01:06:43.766Z,18.41
2023-09-17T01:09:09.991Z,18.32
2023-09-17T01:11:36.207Z,18.36
2023-09-17T01:14:02.462Z,18.33
2023-09-17T01:16:28.730Z,18.31
2023-09-17T01:18:55.013Z,18.26
2023-09-17T01:21:21.220Z,18.23
2023-09-17T01:23:47.390Z,18.22
2023-09-17T01:26:13.621Z,18.23
2023-09-17T01:28:39.894Z,18.26
2023-09-17T01:31:06.141Z,18.31
2023-09-17T01:33:32.379Z,18.31
2023-09-17T01:35:58.578Z,18.32
2023-09-17T01:38:24.962Z,18.37
2023-09-17T01:40:51.238Z,18.44
2023-09-17T01:43:17.534Z,18.49
2023-09-17T01:45:43.746Z,18.52
2023-09-17T01:48:09.974Z,18.60
2023-09-17T01:50:36.185Z,18.62
2023-09-17T01:53:02.406Z,18.66
2023-09-17T01:55:28.699Z,18.71
2023-09-17T01:57:54.910Z,18.73
2023-09-17T02:00:21.137Z,18.77
2023-09-17T02:02:47.458Z,18.84
2023-09-17T02:05:13.715Z,18.85
2023-09-17T02:07:39.931Z,18.81
2023-09-17T02:10:06.194Z,18.84
2023-09-17T02:12:32.394Z,18.80
2023-09-17T02:14:58.628Z,18.76
2023-09-17T02:17:25.123Z,18.75
2023-09-17T02:19:51.468Z,18.75
2023-09-17T02:22:17.758Z,18.76
2023-09-17T02:24:43.975Z,18.79
2023-09-17T02:27:10.188Z,18.88
2023-09-17T02:29:36.399Z,18.88
2023-09-17T02:32:02.737Z,18.89
2023-09-17T02:34:28.962Z,18.94
2023-09-17T02:36:55.190Z,18.97
2023-09-17T02:39:21.404Z,19.00
2023-09-17T02:41:47.647Z,18.92
2023-09-17T02:44:13.874Z,19.03
2023-09-17T02:46:40.174Z,19.01
2023-09-17T02:49:06.430Z,19.01
2023-09-17T02:51:32.649Z,18.98
2023-09-17T02:53:58.844Z,19.01
2023-09-17T02:56:25.072Z,19.03
2023-09-17T02:58:51.346Z,19.04
2023-09-17T03:01:17.678Z,19.05
2023-09-17T03:03:43.897Z,19.05
2023-09-17T03:06:10.135Z,19.05
2023-09-17T03:08:36.386Z,19.04
2023-09-17T03:11:02.597Z,19.02
2023-09-17T03:13:28.828Z,19.03
2023-09-17T03:15:55.120Z,19.02
2023-09-17T03:18:21.333Z,18.99
2023-09-17T03:20:47.594Z,18.97
2023-09-17T03:23:13.851Z,18.95
2023-09-17T03:25:40.101Z,18.92
2023-09-17T03:28:06.314Z,18.92
2023-09-17T03:30:32.516Z,18.91
2023-09-17T03:33:04.966Z,18.87
2023-09-17T03:35:31.891Z,18.85
2023-09-17T03:37:58.125Z,18.84
2023-09-17T03:40:24.317Z,18.84
2023-09-17T03:42:50.502Z,18.86
2023-09-17T03:45:16.744Z,18.85
2023-09-17T03:47:43.051Z,18.84
2023-09-17T03:50:09.291Z,18.84
2023-09-17T03:52:35.566Z,18.84
2023-09-17T03:55:01.742Z,18.84
2023-09-17T03:57:27.945Z,18.88
2023-09-17T03:59:54.195Z,18.85
2023-09-17T04:02:20.456Z,18.84
2023-09-17T04:04:46.782Z,18.84
2023-09-17T04:07:13.086Z,18.83
2023-09-17T04:09:39.298Z,18.82
2023-09-17T04:12:05.488Z,18.81
2023-09-17T04:14:31.670Z,18.78
2023-09-17T04:16:58.067Z,18.74
2023-09-17T04:19:24.350Z,18.71
2023-09-17T04:21:50.599Z,18.70
2023-09-17T04:24:16.825Z,18.68
2023-09-17T04:26:43.055Z,18.67
2023-09-17T04:29:09.238Z,18.68
2023-09-17T04:31:35.536Z,18.66
2023-09-17T04:34:01.804Z,18.67
2023-09-17T04:36:27.987Z,18.65
2023-09-17T04:38:54.211Z,18.63
2023-09-17T04:41:20.453Z,18.63
2023-09-17T04:43:46.699Z,18.65
2023-09-17T04:46:12.987Z,18.62
2023-09-17T04:48:39.204Z,18.62
2023-09-17T04:51:05.481Z,18.60
2023-09-17T04:53:31.678Z,18.56
2023-09-17T04:55:58.144Z,18.54
2023-09-17T04:58:24.434Z,18.46
2023-09-17T05:00:50.684Z,18.55
2023-09-17T05:03:17.040Z,18.48
2023-09-17T05:05:43.406Z,18.47
2023-09-17T05:08:09.670Z,18.46
2023-09-17T05:10:35.945Z,18.44
2023-09-17T05:13:02.205Z,18.42
2023-09-17T05:15:28.473Z,18.41
2023-09-17T05:17:54.763Z,18.42
2023-09-17T05:20:20.970Z,18.44
2023-09-17T05:22:47.246Z,18.51
2023-09-17T05:25:13.455Z,18.53
2023-09-17T05:27:39.693Z,18.56
2023-09-17T05:30:05.941Z,18.55
2023-09-17T05:32:32.419Z,18.57
2023-09-17T05:34:58.684Z,18.60
2023-09-17T05:37:24.932Z,18.68
2023-09-17T05:39:51.244Z,18.74
2023-09-17T05:42:17.573Z,18.80
2023-09-17T05:44:55.706Z,18.89
2023-09-17T05:47:21.930Z,18.99
2023-09-17T05:49:48.418Z,19.06
2023-09-17T05:52:14.680Z,19.10
2023-09-17T05:54:40.851Z,19.13
2023-09-17T05:57:07.041Z,19.15
2023-09-17T05:59:33.392Z,19.14
2023-09-17T06:01:59.616Z,19.20
2023-09-17T06:04:25.899Z,19.25
2023-09-17T06:06:52.120Z,19.26
2023-09-17T06:09:18.346Z,19.30
2023-09-17T06:11:44.539Z,19.35
2023-09-17T06:14:10.790Z,19.39
2023-09-17T06:16:54.038Z,19.43
2023-09-17T06:19:32.144Z,19.58
2023-09-17T06:21:58.435Z,19.77
2023-09-17T06:24:24.582Z,20.13
2023-09-17T06:26:50.749Z,20.42
2023-09-17T06:29:16.948Z,20.67
2023-09-17T06:31:43.267Z,20.95
2023-09-17T06:34:09.536Z,21.09
2023-09-17T06:36:44.626Z,21.18
2023-09-17T06:39:10.845Z,21.29
2023-09-17T06:41:39.664Z,21.36
2023-09-17T06:44:07.334Z,21.48
2023-09-17T06:46:33.994Z,21.60
2023-09-17T06:49:00.330Z,21.57
2023-09-17T06:51:26.613Z,21.78
2023-09-17T06:53:53.142Z,21.96
2023-09-17T06:56:19.636Z,22.11
2023-09-17T06:58:45.915Z,22.29
2023-09-17T07:01:12.218Z,22.50
2023-09-17T07:03:38.472Z,22.70
2023-09-17T07:06:04.846Z,22.92
2023-09-17T07:08:31.113Z,23.16
2023-09-17T07:10:57.364Z,22.92
2023-09-17T07:13:23.676Z,22.74
2023-09-17T07:15:49.967Z,22.38
2023-09-17T07:18:16.326Z,22.27
2023-09-17T07:20:42.651Z,22.57
2023-09-17T07:23:08.892Z,23.06
2023-09-17T07:25:35.405Z,23.41
2023-09-17T07:31:00.934Z,23.94
2023-09-17T07:33:27.654Z,24.36
2023-09-17T07:35:53.975Z,24.59
2023-09-17T07:38:20.371Z,25.01
2023-09-17T07:40:46.721Z,24.85
2023-09-17T07:43:12.992Z,24.82
2023-09-17T07:45:39.218Z,25.12
2023-09-17T07:48:05.537Z,25.20
2023-09-17T07:50:31.816Z,25.63
2023-09-17T07:52:58.067Z,26.24
2023-09-17T07:55:24.355Z,26.14
2023-09-17T07:57:50.563Z,26.13
2023-09-17T08:00:16.788Z,26.48
2023-09-17T08:02:43.183Z,26.48
2023-09-17T08:05:09.530Z,26.79
2023-09-17T08:07:35.804Z,26.52
2023-09-17T08:10:02.115Z,26.91
2023-09-17T08:12:28.317Z,27.20
2023-09-17T08:14:55.599Z,27.30
2023-09-17T08:17:21.927Z,27.08
2023-09-17T08:19:48.216Z,27.19
2023-09-17T08:22:14.477Z,27.88
2023-09-17T08:24:40.643Z,27.47
2023-09-17T08:27:06.885Z,27.97
2023-09-17T08:29:33.072Z,28.15
2023-09-17T08:31:59.486Z,28.78
2023-09-17T08:34:25.815Z,28.76
2023-09-17T08:36:52.046Z,29.05
2023-09-17T08:39:18.329Z,29.06
2023-09-17T08:41:44.542Z,29.36
2023-09-17T08:44:10.929Z,29.32
2023-09-17T08:46:37.260Z,29.51
2023-09-17T08:49:03.588Z,29.61
2023-09-17T08:51:30.809Z,30.21
2023-09-17T08:53:57.026Z,30.64
2023-09-17T08:56:23.268Z,30.99
2023-09-17T08:58:49.604Z,30.88
2023-09-17T09:01:15.848Z,30.00
2023-09-17T09:03:42.194Z,29.89
2023-09-17T09:06:08.525Z,29.37
2023-09-17T09:08:34.812Z,28.88
2023-09-17T09:11:02.035Z,28.46
2023-09-17T09:13:28.546Z,28.50
2023-09-17T09:15:54.807Z,28.61
2023-09-17T09:18:21.269Z,28.54
2023-09-17T09:20:47.492Z,28.71
2023-09-17T09:23:13.756Z,28.70
2023-09-17T09:25:39.978Z,28.66
2023-09-17T09:28:06.195Z,28.66
2023-09-17T09:30:36.108Z,28.47
2023-09-17T09:33:02.369Z,28.49
2023-09-17T09:35:28.687Z,28.60
2023-09-17T09:37:55.040Z,28.91
2023-09-17T09:40:21.299Z,28.90
2023-09-17T09:42:47.601Z,29.06
2023-09-17T09:45:13.884Z,28.80
2023-09-17T09:47:40.058Z,29.07
2023-09-17T09:50:06.266Z,28.78
2023-09-17T09:52:32.633Z,29.11
2023-09-17T09:54:58.919Z,29.13
2023-09-17T09:57:25.154Z,29.27
2023-09-17T09:59:51.495Z,29.46
2023-09-17T10:02:17.768Z,29.52
2023-09-17T10:04:44.076Z,29.41
2023-09-17T10:07:10.337Z,29.61
2023-09-17T10:09:36.547Z,29.22
2023-09-17T10:12:02.774Z,29.22
2023-09-17T10:14:29.038Z,29.01
2023-09-17T10:16:55.318Z,29.17
2023-09-17T10:19:21.530Z,29.46
2023-09-17T10:21:47.732Z,29.49
2023-09-17T10:24:13.976Z,29.58
2023-09-17T10:26:40.209Z,29.76
2023-09-17T10:29:06.454Z,29.74
2023-09-17T10:31:32.821Z,29.56
2023-09-17T10:33:59.120Z,29.40
2023-09-17T10:36:25.346Z,29.46
2023-09-17T10:38:51.594Z,29.64
2023-09-17T10:41:17.827Z,29.57
2023-09-17T10:43:44.059Z,29.44
2023-09-17T10:46:10.309Z,29.56
2023-09-17T10:48:36.525Z,29.45
2023-09-17T10:51:02.708Z,29.65
2023-09-17T10:53:28.976Z,29.88
2023-09-17T10:55:55.265Z,29.89
2023-09-17T10:58:21.631Z,30.04
2023-09-17T11:00:47.887Z,30.12
2023-09-17T11:03:14.191Z,30.08
2023-09-17T11:05:40.522Z,30.02
2023-09-17T11:08:06.804Z,29.99
2023-09-17T11:10:33.244Z,30.42
2023-09-17T11:12:59.553Z,30.47
2023-09-17T11:15:25.777Z,30.12
2023-09-17T11:17:52.128Z,30.13
2023-09-17T11:20:18.435Z,30.37
2023-09-17T11:22:44.735Z,30.43
2023-09-17T11:25:11.017Z,30.41
2023-09-17T11:27:37.200Z,30.35
2023-09-17T11:30:03.407Z,30.45
2023-09-17T11:32:29.664Z,30.64
2023-09-17T11:34:55.978Z,30.82
2023-09-17T11:37:22.298Z,30.40
2023-09-17T11:39:48.491Z,30.35
2023-09-17T11:42:14.901Z,30.21
2023-09-17T11:44:41.193Z,30.17
2023-09-17T11:47:07.412Z,30.36
2023-09-17T11:49:33.775Z,30.33
2023-09-17T11:52:00.221Z,29.99
2023-09-17T11:54:26.454Z,29.89
2023-09-17T11:56:52.665Z,30.11
2023-09-17T11:59:18.834Z,30.08
2023-09-17T12:01:45.151Z,30.28
2023-09-17T12:04:11.524Z,30.23
2023-09-17T12:06:37.759Z,30.29
2023-09-17T12:09:03.980Z,30.58
2023-09-17T12:11:30.243Z,30.93
2023-09-17T12:13:56.436Z,30.70
2023-09-17T12:16:22.671Z,30.81
2023-09-17T12:18:49.892Z,30.85
2023-09-17T12:21:19.478Z,30.97
2023-09-17T12:23:45.677Z,30.95
2023-09-17T12:26:11.882Z,30.84
2023-09-17T12:28:38.158Z,30.78
2023-09-17T12:31:04.456Z,31.15
2023-09-17T12:33:30.710Z,31.26
2023-09-17T12:35:56.889Z,31.29
2023-09-17T12:38:23.079Z,31.42
2023-09-17T12:40:49.368Z,31.48
2023-09-17T12:43:15.661Z,31.36
2023-09-17T12:45:41.917Z,31.27
2023-09-17T12:48:08.190Z,31.33
2023-09-17T12:50:34.481Z,31.17
2023-09-17T12:53:00.721Z,30.92
2023-09-17T12:55:26.944Z,31.04
2023-09-17T12:57:53.171Z,31.35
2023-09-17T13:00:19.445Z,31.20
2023-09-17T13:02:45.781Z,31.56
2023-09-17T13:05:12.015Z,31.66
2023-09-17T13:07:38.293Z,31.79
2023-09-17T13:10:04.596Z,31.91
2023-09-17T13:12:30.792Z,31.63
2023-09-17T13:14:57.066Z,31.71
2023-09-17T13:17:23.271Z,31.39
2023-09-17T13:19:49.521Z,31.45
2023-09-17T13:22:15.819Z,31.46
2023-09-17T13:24:42.021Z,31.16
2023-09-17T13:27:08.186Z,31.33
2023-09-17T13:29:34.430Z,31.32
2023-09-17T13:32:00.731Z,31.15
2023-09-17T13:34:26.984Z,31.38
2023-09-17T13:36:53.208Z,31.41
2023-09-17T13:39:19.418Z,31.48
2023-09-17T13:41:45.621Z,31.85
2023-09-17T13:44:11.982Z,32.06
2023-09-17T13:46:38.233Z,32.27
2023-09-17T13:49:04.520Z,32.29
2023-09-17T13:51:30.709Z,32.47
2023-09-17T13:53:56.916Z,32.74
2023-09-17T13:56:23.118Z,32.82
2023-09-17T13:58:49.446Z,32.71
2023-09-17T14:01:15.809Z,32.52
2023-09-17T14:03:42.003Z,32.85
2023-09-17T14:06:08.219Z,32.63
2023-09-17T14:08:34.427Z,32.63
2023-09-17T14:11:00.728Z,33.01
2023-09-17T14:13:26.994Z,33.23
2023-09-17T14:15:53.216Z,33.31
2023-09-17T14:18:19.453Z,33.47
2023-09-17T14:20:45.685Z,33.24
2023-09-17T14:23:11.983Z,33.42
2023-09-17T14:25:38.281Z,33.55
2023-09-17T14:28:04.593Z,33.40
2023-09-17T14:30:30.795Z,33.56
2023-09-17T14:32:57.151Z,33.39
2023-09-17T14:35:23.578Z,33.51
2023-09-17T14:37:49.878Z,33.61
2023-09-17T14:40:16.158Z,33.51
2023-09-17T14:42:42.360Z,33.62
2023-09-17T14:45:08.588Z,33.70
2023-09-17T14:47:34.939Z,34.06
2023-09-17T14:50:01.264Z,34.36
2023-09-17T14:52:27.638Z,34.45
2023-09-17T14:54:54.133Z,34.33
2023-09-17T14:57:20.504Z,33.91
2023-09-17T14:59:46.735Z,33.69
2023-09-17T15:02:13.107Z,33.67
2023-09-17T15:04:39.560Z,33.99
2023-09-17T15:07:05.940Z,34.11
2023-09-17T15:09:32.170Z,34.33
2023-09-17T15:11:58.427Z,34.48
2023-09-17T15:14:25.733Z,34.43
2023-09-17T15:16:52.069Z,35.01
2023-09-17T15:19:18.326Z,34.72
2023-09-17T15:21:44.577Z,34.89
2023-09-17T15:24:10.804Z,35.16
2023-09-17T15:26:37.093Z,35.30
2023-09-17T15:29:03.334Z,35.27
2023-09-17T15:31:29.569Z,35.15
2023-09-17T15:33:55.970Z,35.30
2023-09-17T15:36:22.275Z,35.17
2023-09-17T15:38:48.455Z,35.44
2023-09-17T15:41:14.703Z,35.31
2023-09-17T15:43:41.002Z,35.56
2023-09-17T15:46:07.293Z,35.21
2023-09-17T15:48:33.530Z,34.90
2023-09-17T15:50:59.743Z,34.52
2023-09-17T15:53:25.936Z,34.34
2023-09-17T15:55:52.234Z,33.88
2023-09-17T15:58:18.456Z,33.41
2023-09-17T16:00:44.726Z,32.85
2023-09-17T16:03:11.061Z,32.42
2023-09-17T16:05:37.383Z,31.94
2023-09-17T16:08:03.660Z,31.46
2023-09-17T16:10:29.905Z,31.00
2023-09-17T16:12:58.071Z,30.86
2023-09-17T16:15:24.521Z,30.59
2023-09-17T16:17:50.819Z,30.20
2023-09-17T16:20:17.174Z,29.94
2023-09-17T16:22:43.415Z,29.73
2023-09-17T16:25:09.751Z,29.56
2023-09-17T16:27:36.047Z,29.56
2023-09-17T16:30:02.280Z,29.62
2023-09-17T16:32:28.628Z,29.58
2023-09-17T16:34:54.962Z,29.43
2023-09-17T16:37:21.154Z,29.27
2023-09-17T16:39:47.330Z,29.13
2023-09-17T16:42:13.583Z,28.98
2023-09-17T16:44:39.825Z,28.93
2023-09-17T16:47:06.145Z,28.89
2023-09-17T16:49:32.422Z,28.87
2023-09-17T16:51:58.704Z,28.79
2023-09-17T16:54:24.920Z,28.71
2023-09-17T16:56:51.169Z,28.67
2023-09-17T16:59:17.433Z,28.53
2023-09-17T17:01:43.865Z,28.46
2023-09-17T17:04:10.322Z,28.42
2023-09-17T17:06:36.716Z,28.39
2023-09-17T17:09:02.977Z,28.38
2023-09-17T17:11:29.174Z,28.32
2023-09-17T17:13:55.730Z,28.24
2023-09-17T17:16:22.159Z,28.09
2023-09-17T17:18:48.366Z,27.95
2023-09-17T17:21:14.630Z,28.00
2023-09-17T17:23:40.879Z,27.92
2023-09-17T17:26:07.113Z,27.87
2023-09-17T17:28:33.434Z,27.73
2023-09-17T17:30:59.746Z,27.75
2023-09-17T17:33:26.065Z,27.63
2023-09-17T17:35:52.277Z,27.50
2023-09-17T17:38:18.502Z,27.43
2023-09-17T17:40:44.790Z,27.33
2023-09-17T17:43:11.082Z,27.22
2023-09-17T17:45:37.309Z,27.05
2023-09-17T17:48:03.565Z,26.90
2023-09-17T17:50:29.883Z,26.85
2023-09-17T17:52:56.208Z,26.66
2023-09-17T17:55:22.469Z,26.48
2023-09-17T17:57:48.719Z,26.32
2023-09-17T18:00:14.951Z,26.17
2023-09-17T18:02:41.426Z,26.05
2023-09-17T18:05:07.894Z,25.98
2023-09-17T18:07:36.969Z,25.90
2023-09-17T18:10:03.315Z,25.80
2023-09-17T18:12:29.560Z,25.70
2023-09-17T18:14:55.863Z,25.57
2023-09-17T18:17:22.188Z,25.50
2023-09-17T18:19:48.847Z,25.40
2023-09-17T18:22:15.094Z,25.31
2023-09-17T18:24:44.157Z,25.25
2023-09-17T18:27:10.403Z,25.19
2023-09-17T18:29:36.626Z,25.16
2023-09-17T18:32:02.849Z,25.09
2023-09-17T18:34:29.086Z,25.04
2023-09-17T18:36:55.329Z,24.96
2023-09-17T18:39:21.542Z,24.89
2023-09-17T18:41:47.739Z,24.87
2023-09-17T18:44:14.020Z,24.84
2023-09-17T18:46:40.317Z,24.85
2023-09-17T18:49:06.532Z,24.93
2023-09-17T18:51:32.724Z,24.91
2023-09-17T18:53:58.984Z,24.95
2023-09-17T18:56:35.480Z,24.88
2023-09-17T18:59:04.461Z,24.76
2023-09-17T19:01:30.708Z,24.66
2023-09-17T19:03:57.242Z,24.51
2023-09-17T19:06:23.805Z,24.46
2023-09-17T19:08:50.010Z,24.41
2023-09-17T19:11:16.371Z,24.49
2023-09-17T19:13:42.655Z,24.52
2023-09-17T19:16:10.226Z,24.72
2023-09-17T19:18:36.449Z,24.92
2023-09-17T19:21:07.805Z,24.91
2023-09-17T19:23:41.700Z,24.87
2023-09-17T19:26:08.002Z,24.89
2023-09-17T19:28:34.247Z,24.94
2023-09-17T19:31:00.431Z,25.03
2023-09-17T19:33:26.682Z,25.07
2023-09-17T19:35:52.968Z,25.04
2023-09-17T19:38:19.247Z,25.01
2023-09-17T19:40:45.557Z,25.05
2023-09-17T19:43:11.934Z,24.98
2023-09-17T19:45:38.220Z,25.03
2023-09-17T19:48:04.568Z,24.99
2023-09-17T19:50:30.851Z,25.10
2023-09-17T19:52:57.098Z,25.14
2023-09-17T19:55:23.329Z,25.19
2023-09-17T19:57:49.619Z,25.18
2023-09-17T20:00:15.837Z,25.19
2023-09-17T20:02:42.164Z,25.18
2023-09-17T20:05:08.482Z,25.19
2023-09-17T20:07:34.773Z,25.33
2023-09-17T20:10:01.028Z,25.39
2023-09-17T20:12:27.288Z,25.52
2023-09-17T20:14:53.496Z,25.40
2023-09-17T20:17:19.900Z,25.36
2023-09-17T20:19:46.183Z,25.27
2023-09-17T20:22:12.422Z,25.18
2023-09-17T20:24:38.709Z,25.12
2023-09-17T20:27:04.980Z,25.06
2023-09-17T20:29:31.296Z,25.04
2023-09-17T20:31:57.594Z,25.07
2023-09-17T20:34:27.378Z,25.13
2023-09-17T20:36:53.635Z,25.11
2023-09-17T20:39:19.955Z,25.15
2023-09-17T20:41:46.246Z,25.05
2023-09-17T20:44:12.474Z,25.00
2023-09-17T20:46:38.726Z,25.11
2023-09-17T20:49:04.970Z,25.16
2023-09-17T20:51:31.170Z,25.27
2023-09-17T20:53:57.436Z,25.19
2023-09-17T20:56:26.419Z,25.13
2023-09-17T20:58:52.812Z,25.09
2023-09-17T21:01:19.231Z,25.06
2023-09-17T21:03:45.554Z,25.00
2023-09-17T21:06:11.841Z,25.01
2023-09-17T21:08:38.016Z,24.98
2023-09-17T21:11:04.377Z,24.91
2023-09-17T21:13:30.649Z,24.87
2023-09-17T21:15:56.936Z,24.88
2023-09-17T21:18:23.211Z,24.89
2023-09-17T21:20:49.395Z,24.78
2023-09-17T21:23:15.658Z,24.74
2023-09-17T21:25:41.921Z,24.82
2023-09-17T21:28:08.158Z,24.87
2023-09-17T21:30:34.405Z,24.82
2023-09-17T21:33:00.741Z,24.77
2023-09-17T21:35:27.010Z,24.77
2023-09-17T21:37:53.260Z,24.74
2023-09-17T21:40:19.507Z,24.69
2023-09-17T21:42:45.725Z,24.70
2023-09-17T21:45:11.954Z,24.74
2023-09-17T21:47:38.215Z,24.70
2023-09-17T21:50:04.510Z,24.70
2023-09-17T21:52:30.761Z,24.61
2023-09-17T21:54:57.042Z,24.57
2023-09-17T21:57:23.236Z,24.49
2023-09-17T21:59:49.484Z,24.44
2023-09-17T22:02:15.728Z,24.41
2023-09-17T22:04:42.014Z,24.48
2023-09-17T22:07:08.205Z,24.53
2023-09-17T22:09:34.434Z,24.44
2023-09-17T22:12:00.747Z,24.36
2023-09-17T22:14:27.021Z,24.32
2023-09-17T22:16:53.400Z,24.27
2023-09-17T22:19:19.692Z,24.29
2023-09-17T22:21:45.924Z,24.22
2023-09-17T22:24:12.140Z,24.26
2023-09-17T22:26:38.335Z,24.23
2023-09-17T22:29:04.549Z,24.13
2023-09-17T22:31:30.847Z,24.10
2023-09-17T22:33:59.452Z,24.24
2023-09-17T22:36:25.688Z,24.22
2023-09-17T22:38:52.148Z,24.21
2023-09-17T22:41:18.644Z,24.12
2023-09-17T22:43:44.922Z,24.10
2023-09-17T22:46:11.148Z,24.02
2023-09-17T22:48:37.383Z,23.88
2023-09-17T22:51:03.611Z,23.81
2023-09-17T22:53:29.863Z,23.90
2023-09-17T22:55:56.143Z,23.81
2023-09-17T22:58:22.392Z,23.98
2023-09-17T23:00:48.643Z,23.96
2023-09-17T23:03:14.902Z,24.06
2023-09-17T23:05:41.297Z,24.18
2023-09-17T23:08:07.576Z,24.18
2023-09-17T23:10:33.812Z,24.17
2023-09-17T23:13:00.035Z,24.11
2023-09-17T23:15:26.207Z,24.07
2023-09-17T23:17:52.482Z,23.97
2023-09-17T23:20:18.733Z,23.93
2023-09-17T23:22:44.959Z,23.84
2023-09-17T23:25:11.177Z,23.90
2023-09-17T23:27:37.382Z,23.93
2023-09-17T23:30:03.603Z,23.87
2023-09-17T23:32:29.869Z,23.78
2023-09-17T23:34:56.092Z,23.67
2023-09-17T23:37:22.270Z,23.66
2023-09-17T23:39:48.472Z,23.60
2023-09-17T23:42:15.893Z,23.61
2023-09-17T23:44:42.095Z,23.54
2023-09-17T23:47:08.358Z,23.57
2023-09-17T23:49:34.636Z,23.56
2023-09-17T23:52:00.872Z,23.45
2023-09-17T23:54:27.078Z,23.44
2023-09-17T23:56:53.272Z,23.53
2023-09-17T23:59:19.621Z,23.55
